Auburndale, FL

5:26 PM EST on February 22, 2017 (GMT -0500)
Marianna Park | | Change Station

Elev 151 ft 28.07 °N, 81.77 °W | Updated 5 seconds ago

Light Rain
Light Rain
68.9 °F
Feels Like 68.9 °F
N
2.5
Wind Variable Wind from WSW
Gusts 2.5 mph

Today
High -- | Low -- °F
--% Chance of Precip.
Yesterday
High -- | Low -- °F
Precip. -- in
Pressure 29.66 in
Visibility 10.0 miles
Clouds Mostly Cloudy 2200 ft
Mostly Cloudy 3400 ft
Dew Point 67 °F
Humidity 94%
Rainfall 0.17 in
Snow Depth Not available.
6:58 AM 6:23 PM
Waning Crescent, 14% visible
SPECI KGIF 222202Z AUTO 11006KT 10SM VCTS -RA BKN022 BKN034 21/17 A2966 RMK AO2 LTG DSNT S AND W RAB01 P0000 T02060167
Pressure 29.66 in
Visibility 10.0 miles
Clouds Mostly Cloudy 2200 ft
Mostly Cloudy 3400 ft
Dew Point 67 °F
Humidity 94%
Rainfall 0.17 in
Snow Depth Not available.
6:58 AM 6:23 PM
Waning Crescent, 14% visible
SPECI KGIF 222202Z AUTO 11006KT 10SM VCTS -RA BKN022 BKN034 21/17 A2966 RMK AO2 LTG DSNT S AND W RAB01 P0000 T02060167

Get Your Daily Forecast Email!

Thanks for signing up!

Be on the lookout for a verification email in your inbox.

You'll start receiving the daily forecast at 8 AM.

×

10-Day Weather Forecast

Almanac

Astronomy

Feb. 22, 2017 Rise Set
Actual Time
Civil Twilight
Nautical Twilight
Astronomical Twilight
Moon
Length of Visible Light
Length of Day
Tomorrow will be .
, % of the Moon is Illuminated

Today's Extremes

State Highs State Lows

Community

WunderPhotos

Upload Photos

1,962,540 photos uploaded!

WunderBlog® & News

Nearby

Air Quality

  Air Quality AQ Index Pollutant
Not available.

Snow Depth

Station Depth Elevation

Earthquake Activity

City Distance Mag. Time & Date
Minimum magnitude displayed is 2.5.

Coastal Water Temperatures

Place Temperature

Stations

Nearby Weather Stations

Station Location Temp. Windchill Dew Point Humidity Wind Precip. Elev Updated Type
                   

Watches & Warnings

There are currently no watches in effect.